Pagrindinis puslapis
METAR-TAF:

METAR-TAF

Oro uostai :

Stokholmas, Švedija

platuma: 59-21N, ilguma: 017-57E, Aukštis: 14 m

Dabartinis oras

Ataskaita buvo paskelbta 28 minutes, ne 12:50 UTC
Vėjas 11 kt iš Vakarų/Pietvakarių
Temperatūra 6°C
Drėgmė 65%
Slėgis 999 hPa
Matomumas 10 km arba daugiau
Mažai debesys ne aukštis 2500 ft

METAR: ESSB 191250Z 25011KT 9999 FEW025 06/00 Q0999 R12/09//92

Laikas: 14:18 (13:18 UTC)

Prognozė

Ataskaita buvo paskelbta 1 valandą ir 48 minutes, ne 11:30 UTC
Prognozė galioja nuo 19 metu 12 UTC su 19 metu 21 UTC
Vėjas 12 kt iš Vakarų/Pietvakarių
Matomumas 10 km arba daugiau
Išsisklaidę debesys ne aukštis 2000 ft

TAF: ESSB 191130Z 1912/1921 25012KT 9999 SCT020

Orai ataskaitas ir orų prognozės (METAR, TAF).

turimą stotys yra geltonos ir raudonos taškus žemėlapyje.

Perkelti pele per norėdami pamatyti stoties vardą.

Tada spustelėkite, norėdami matyti oro stebėjimo ir prognozės.

Norėdami pakeisti žemėlapį: spustelėkite ant žalios mygtukų su juodo kryžiaus žemyn,; žalią mygtuką su brūkšneliu, jei norite nutolinti; arba žalių rodyklių gretimoms žemėlapius.


METAR-TAF: